createdAt,value
2023-02-03T00:01:03.910Z,2.30
2023-02-03T00:03:33.904Z,14.30
2023-02-03T00:06:05.973Z,10.80
2023-02-03T00:08:37.099Z,10.45
2023-02-03T00:11:07.503Z,8.52
2023-02-03T00:13:38.089Z,8.38
2023-02-03T00:16:08.520Z,12.20
2023-02-03T00:18:38.824Z,9.80
2023-02-03T00:21:10.036Z,7.50
2023-02-03T00:23:40.218Z,9.25
2023-02-03T00:26:12.936Z,3.90
2023-02-03T00:28:45.756Z,6.43
2023-02-03T00:31:21.239Z,8.10
2023-02-03T00:33:57.552Z,4.30
2023-02-03T00:36:28.470Z,5.50
2023-02-03T00:38:58.760Z,3.92
2023-02-03T00:41:32.776Z,4.18
2023-02-03T00:44:02.967Z,6.15
2023-02-03T00:46:33.223Z,5.78
2023-02-03T00:49:03.511Z,6.15
2023-02-03T00:51:34.262Z,7.07
2023-02-03T00:54:04.255Z,4.95
2023-02-03T00:56:34.268Z,4.82
2023-02-03T00:59:04.621Z,5.00
2023-02-03T01:01:35.619Z,5.68
2023-02-03T01:04:06.286Z,5.78
2023-02-03T01:06:36.827Z,5.22
2023-02-03T01:09:07.036Z,5.43
2023-02-03T01:11:37.043Z,5.47
2023-02-03T01:14:07.210Z,4.53
2023-02-03T01:16:39.803Z,4.85
2023-02-03T01:19:10.375Z,9.27
2023-02-03T01:21:41.890Z,12.07
2023-02-03T01:24:12.121Z,6.40
2023-02-03T01:26:42.771Z,7.93
2023-02-03T01:29:13.167Z,7.07
2023-02-03T01:31:44.456Z,10.23
2023-02-03T01:34:17.560Z,10.70
2023-02-03T01:36:49.823Z,7.25
2023-02-03T01:39:19.973Z,6.60
2023-02-03T01:41:50.236Z,11.23
2023-02-03T01:44:43.161Z,8.80
2023-02-03T01:47:35.121Z,9.43
2023-02-03T01:50:26.673Z,9.35
2023-02-03T01:53:05.198Z,11.88
2023-02-03T01:55:41.452Z,8.00
2023-02-03T01:58:22.083Z,7.55
2023-02-03T02:00:54.840Z,10.63
2023-02-03T02:03:30.965Z,9.38
2023-02-03T02:06:08.645Z,13.15
2023-02-03T02:08:40.179Z,15.25
2023-02-03T02:11:10.470Z,16.65
2023-02-03T02:13:47.297Z,16.70
2023-02-03T02:16:31.692Z,18.90
2023-02-03T02:19:18.663Z,19.02
2023-02-03T02:22:21.959Z,22.58
2023-02-03T02:25:04.930Z,24.15
2023-02-03T02:28:11.852Z,17.70
2023-02-03T02:30:53.260Z,17.70
2023-02-03T02:33:37.063Z,17.65
2023-02-03T02:36:17.589Z,16.73
2023-02-03T02:38:54.030Z,15.88
2023-02-03T02:41:27.956Z,18.55
2023-02-03T02:44:11.704Z,14.68
2023-02-03T02:46:50.005Z,16.65
2023-02-03T02:49:52.874Z,16.63
2023-02-03T02:52:25.635Z,17.15
2023-02-03T02:55:00.263Z,15.40
2023-02-03T02:57:32.948Z,15.68
2023-02-03T03:00:03.379Z,16.27
2023-02-03T03:02:37.876Z,18.23
2023-02-03T03:05:10.985Z,10.30
2023-02-03T03:07:56.764Z,13.95
2023-02-03T03:10:31.844Z,12.30
2023-02-03T03:13:07.070Z,13.65
2023-02-03T03:15:39.198Z,20.52
2023-02-03T03:20:44.133Z,9.73
2023-02-03T03:23:26.186Z,8.77
2023-02-03T03:26:10.219Z,12.00
2023-02-03T03:29:02.541Z,12.77
2023-02-03T03:31:32.952Z,12.52
2023-02-03T03:34:03.235Z,9.60
2023-02-03T03:36:48.555Z,11.30
2023-02-03T03:39:33.145Z,10.70
2023-02-03T03:42:08.446Z,9.38
2023-02-03T03:44:46.607Z,8.40
2023-02-03T03:47:22.895Z,10.90
2023-02-03T03:49:54.865Z,9.32
2023-02-03T03:52:31.836Z,12.10
2023-02-03T03:55:04.756Z,14.57
2023-02-03T03:58:08.756Z,15.07
2023-02-03T04:00:41.926Z,9.80
2023-02-03T04:03:22.283Z,13.80
2023-02-03T04:05:53.641Z,14.57
2023-02-03T04:08:23.664Z,14.38
2023-02-03T04:10:53.868Z,15.98
2023-02-03T04:13:23.925Z,16.38
2023-02-03T04:15:53.887Z,11.98
2023-02-03T04:18:23.726Z,14.35
2023-02-03T04:20:54.955Z,11.48
2023-02-03T04:23:24.748Z,12.52
2023-02-03T04:25:54.883Z,14.93
2023-02-03T04:28:25.876Z,13.80
2023-02-03T04:30:56.082Z,12.65
2023-02-03T04:33:26.118Z,11.48
2023-02-03T04:35:55.896Z,12.60
2023-02-03T04:38:25.729Z,10.82
2023-02-03T04:40:55.687Z,11.55
2023-02-03T04:43:25.647Z,11.70
2023-02-03T04:45:55.791Z,13.07
2023-02-03T04:48:25.835Z,10.88
2023-02-03T04:50:55.787Z,14.07
2023-02-03T04:53:25.912Z,11.63
2023-02-03T04:55:55.749Z,13.27
2023-02-03T04:58:28.385Z,11.80
2023-02-03T05:00:58.393Z,11.50
2023-02-03T05:03:28.432Z,11.25
2023-02-03T05:05:58.928Z,16.05
2023-02-03T05:08:28.921Z,14.43
2023-02-03T05:11:01.372Z,10.88
2023-02-03T05:13:32.726Z,12.38
2023-02-03T05:16:02.718Z,10.57
2023-02-03T05:18:32.878Z,11.18
2023-02-03T05:21:02.852Z,10.55
2023-02-03T05:23:34.378Z,11.90
2023-02-03T05:26:06.211Z,8.55
2023-02-03T05:28:36.253Z,10.90
2023-02-03T05:31:06.483Z,9.80
2023-02-03T05:33:36.533Z,8.48
2023-02-03T05:36:06.711Z,10.77
2023-02-03T05:38:36.708Z,15.65
2023-02-03T05:41:25.213Z,9.80
2023-02-03T05:43:56.149Z,9.23
2023-02-03T05:46:26.111Z,10.90
2023-02-03T05:48:55.942Z,11.15
2023-02-03T05:51:26.243Z,12.75
2023-02-03T05:53:56.252Z,8.43
2023-02-03T05:56:26.490Z,9.40
2023-02-03T05:58:56.655Z,11.05
2023-02-03T06:01:26.693Z,11.05
2023-02-03T06:03:56.854Z,10.30
2023-02-03T06:06:28.403Z,8.95
2023-02-03T06:08:58.360Z,9.75
2023-02-03T06:11:28.220Z,8.23
2023-02-03T06:13:59.817Z,8.90
2023-02-03T06:16:31.098Z,10.55
2023-02-03T06:19:02.118Z,9.98
2023-02-03T06:21:32.295Z,9.95
2023-02-03T06:24:02.280Z,10.25
2023-02-03T06:26:32.290Z,6.10
2023-02-03T06:29:02.453Z,7.95
2023-02-03T06:31:32.386Z,8.65
2023-02-03T06:34:04.666Z,8.00
2023-02-03T06:36:34.674Z,7.40
2023-02-03T06:39:04.694Z,6.90
2023-02-03T06:41:34.721Z,5.45
2023-02-03T06:44:04.801Z,7.55
2023-02-03T06:46:35.111Z,6.55
2023-02-03T06:49:05.279Z,6.95
2023-02-03T06:51:35.208Z,6.95
2023-02-03T06:54:06.187Z,7.13
2023-02-03T06:56:36.369Z,7.40
2023-02-03T06:59:06.687Z,7.53
2023-02-03T07:01:36.919Z,6.25
2023-02-03T07:04:07.376Z,6.05
2023-02-03T07:06:37.895Z,7.85
2023-02-03T07:09:08.423Z,6.38
2023-02-03T07:11:38.512Z,6.80
2023-02-03T07:14:08.616Z,7.55
2023-02-03T07:16:38.670Z,7.63
2023-02-03T07:19:08.670Z,7.63
2023-02-03T07:21:38.481Z,5.43
2023-02-03T07:24:09.125Z,5.13
2023-02-03T07:26:40.263Z,6.00
2023-02-03T07:29:10.449Z,8.75
2023-02-03T07:31:40.509Z,4.28
2023-02-03T07:34:10.644Z,6.82
2023-02-03T07:36:40.830Z,9.55
2023-02-03T07:39:10.830Z,12.45
2023-02-03T07:41:41.235Z,7.90
2023-02-03T07:44:11.535Z,6.22
2023-02-03T07:46:45.956Z,3.90
2023-02-03T07:49:16.807Z,5.28
2023-02-03T07:51:46.764Z,6.13
2023-02-03T07:54:16.591Z,6.35
2023-02-03T07:56:46.381Z,3.70
2023-02-03T07:59:16.197Z,7.57
2023-02-03T08:01:46.253Z,7.47
2023-02-03T08:04:18.503Z,7.88
2023-02-03T08:06:48.440Z,4.55
2023-02-03T08:09:18.620Z,3.60
2023-02-03T08:11:49.497Z,3.67
2023-02-03T08:14:20.592Z,4.10
2023-02-03T08:16:50.537Z,2.80
2023-02-03T08:19:22.169Z,4.95
2023-02-03T08:21:52.001Z,4.07
2023-02-03T08:24:22.217Z,8.68
2023-02-03T08:26:52.034Z,4.75
2023-02-03T08:29:22.336Z,5.50
2023-02-03T08:31:52.605Z,6.82
2023-02-03T08:34:22.624Z,3.13
2023-02-03T08:36:52.591Z,8.10
2023-02-03T08:39:22.746Z,3.85
2023-02-03T08:41:52.747Z,2.95
2023-02-03T08:44:23.028Z,4.50
2023-02-03T08:46:56.216Z,3.40
2023-02-03T08:49:28.493Z,5.00
2023-02-03T08:52:00.269Z,4.43
2023-02-03T08:54:30.246Z,4.30
2023-02-03T08:57:01.364Z,4.38
2023-02-03T08:59:32.206Z,5.25
2023-02-03T09:02:03.322Z,4.78
2023-02-03T09:04:34.622Z,3.90
2023-02-03T09:07:05.546Z,2.67
2023-02-03T09:09:35.517Z,5.47
2023-02-03T09:12:08.110Z,2.70
2023-02-03T09:14:38.110Z,4.43
2023-02-03T09:17:11.504Z,4.65
2023-02-03T09:19:42.284Z,2.63
2023-02-03T09:22:12.291Z,6.38
2023-02-03T09:24:43.548Z,3.90
2023-02-03T09:27:14.091Z,8.50
2023-02-03T09:29:46.723Z,4.10
2023-02-03T09:32:16.857Z,3.55
2023-02-03T09:34:46.963Z,2.92
2023-02-03T09:37:16.845Z,1.98
2023-02-03T09:39:47.564Z,4.28
2023-02-03T09:42:33.398Z,2.92
2023-02-03T09:45:28.248Z,2.90
2023-02-03T09:48:11.540Z,5.47
2023-02-03T09:50:43.808Z,2.53
2023-02-03T09:53:38.983Z,4.90
2023-02-03T09:56:53.409Z,2.70
2023-02-03T09:59:26.826Z,3.90
2023-02-03T10:02:24.068Z,4.30
2023-02-03T10:07:56.733Z,1.55
2023-02-03T10:11:12.419Z,5.10
2023-02-03T10:14:10.375Z,1.98
2023-02-03T10:17:15.319Z,2.15
2023-02-03T10:20:02.681Z,1.77
2023-02-03T10:22:44.706Z,2.50
2023-02-03T10:25:22.117Z,1.50
2023-02-03T10:27:57.429Z,1.95
2023-02-03T10:30:46.366Z,0.90
2023-02-03T10:33:19.005Z,4.40
2023-02-03T10:35:59.718Z,0.82
2023-02-03T10:38:35.930Z,1.67
2023-02-03T10:41:06.378Z,2.03
2023-02-03T10:43:49.277Z,2.15
2023-02-03T10:46:31.796Z,1.20
2023-02-03T10:49:02.315Z,5.18
2023-02-03T10:51:43.862Z,2.85
2023-02-03T10:54:35.346Z,3.42
2023-02-03T10:57:13.940Z,0.98
2023-02-03T10:59:46.850Z,0.70
2023-02-03T11:02:31.843Z,3.53
2023-02-03T11:05:20.589Z,0.90
2023-02-03T11:07:51.053Z,1.33
2023-02-03T11:10:41.961Z,2.67
2023-02-03T11:13:17.859Z,5.90
2023-02-03T11:16:01.940Z,1.00
2023-02-03T11:18:43.401Z,2.10
2023-02-03T11:21:22.650Z,0.43
2023-02-03T11:24:19.589Z,2.00
2023-02-03T11:27:20.442Z,4.43
2023-02-03T11:30:09.922Z,1.42
2023-02-03T11:32:43.551Z,4.80
2023-02-03T11:35:30.766Z,2.28
2023-02-03T11:38:03.244Z,0.57
2023-02-03T11:40:39.579Z,0.70
2023-02-03T11:43:19.637Z,3.03
2023-02-03T11:45:53.889Z,3.78
2023-02-03T11:48:32.534Z,2.08
2023-02-03T11:54:00.551Z,1.15
2023-02-03T11:56:39.042Z,0.70
2023-02-03T11:59:37.739Z,0.75
2023-02-03T12:02:43.914Z,3.78
2023-02-03T12:05:22.526Z,1.15
2023-02-03T12:10:50.354Z,0.65
2023-02-03T12:13:56.863Z,1.73
2023-02-03T12:16:57.968Z,2.15
2023-02-03T12:20:04.325Z,1.58
2023-02-03T12:22:59.643Z,0.52
2023-02-03T12:25:29.625Z,0.68
2023-02-03T12:28:08.054Z,1.27
2023-02-03T12:30:45.440Z,0.30
2023-02-03T12:33:26.324Z,0.50
2023-02-03T12:36:30.799Z,0.30
2023-02-03T12:39:23.901Z,0.80
2023-02-03T12:42:07.408Z,1.20
2023-02-03T12:45:19.259Z,0.20
2023-02-03T12:47:57.165Z,0.38
2023-02-03T12:50:41.954Z,0.30
2023-02-03T12:53:37.475Z,2.53
2023-02-03T12:56:13.502Z,0.50
2023-02-03T12:58:49.616Z,1.08
2023-02-03T13:01:59.133Z,0.65
2023-02-03T13:04:37.821Z,0.40
2023-02-03T13:07:28.783Z,1.35
2023-02-03T13:10:07.815Z,3.53
2023-02-03T13:12:45.537Z,1.15
2023-02-03T13:15:27.014Z,1.40
2023-02-03T13:18:21.687Z,1.85
2023-02-03T13:20:52.187Z,0.90
2023-02-03T13:23:23.255Z,2.08
2023-02-03T13:25:58.876Z,0.35
2023-02-03T13:28:58.921Z,0.28
2023-02-03T13:32:06.304Z,0.93
2023-02-03T13:34:57.241Z,0.38
2023-02-03T13:38:02.447Z,0.68
2023-02-03T13:41:19.189Z,1.17
2023-02-03T13:43:53.465Z,2.65
2023-02-03T13:46:29.041Z,1.98
2023-02-03T13:49:02.223Z,0.98
2023-02-03T13:51:36.031Z,1.45
2023-02-03T13:54:23.149Z,1.02
2023-02-03T13:57:23.610Z,0.50
2023-02-03T13:59:53.678Z,1.00
2023-02-03T14:02:23.808Z,0.55
2023-02-03T14:04:58.428Z,1.73
2023-02-03T14:07:41.690Z,1.98
2023-02-03T14:10:14.632Z,2.38
2023-02-03T14:12:53.502Z,7.28
2023-02-03T14:15:31.395Z,1.20
2023-02-03T14:21:11.441Z,1.73
2023-02-03T14:23:47.131Z,1.48
2023-02-03T14:26:26.016Z,0.43
2023-02-03T14:28:56.284Z,1.50
2023-02-03T14:31:27.577Z,0.40
2023-02-03T14:34:10.587Z,1.00
2023-02-03T14:36:42.807Z,0.60
2023-02-03T14:39:19.107Z,0.93
2023-02-03T14:42:15.045Z,0.77
2023-02-03T14:45:11.206Z,0.70
2023-02-03T14:47:49.600Z,0.63
2023-02-03T14:50:37.175Z,0.50
2023-02-03T14:53:22.368Z,0.82
2023-02-03T14:56:09.441Z,2.40
2023-02-03T14:58:56.492Z,3.20
2023-02-03T15:01:49.455Z,1.95
2023-02-03T15:04:19.444Z,1.38
2023-02-03T15:06:51.900Z,2.92
2023-02-03T15:09:34.899Z,0.90
2023-02-03T15:12:16.439Z,3.80
2023-02-03T15:14:47.002Z,2.63
2023-02-03T15:17:27.878Z,0.75
2023-02-03T15:19:58.187Z,2.40
2023-02-03T15:22:31.265Z,0.85
2023-02-03T15:25:08.806Z,0.50
2023-02-03T15:27:38.833Z,0.70
2023-02-03T15:30:19.336Z,0.70
2023-02-03T15:33:07.679Z,0.47
2023-02-03T15:35:42.387Z,0.28
2023-02-03T15:38:28.569Z,1.02
2023-02-03T15:41:00.702Z,2.55
2023-02-03T15:43:43.155Z,1.05
2023-02-03T15:46:20.853Z,0.90
2023-02-03T15:49:18.058Z,0.90
2023-02-03T15:51:58.021Z,1.17
2023-02-03T15:54:41.980Z,0.77
2023-02-03T15:57:20.540Z,1.30
2023-02-03T16:00:27.398Z,0.30
2023-02-03T16:02:59.871Z,0.60
2023-02-03T16:05:36.296Z,1.73
2023-02-03T16:08:37.366Z,0.50
2023-02-03T16:11:28.834Z,0.50
2023-02-03T16:14:04.669Z,1.67
2023-02-03T16:16:55.384Z,0.57
2023-02-03T16:19:39.082Z,0.30
2023-02-03T16:22:32.118Z,1.73
2023-02-03T16:25:23.780Z,0.30
2023-02-03T16:28:19.781Z,1.35
2023-02-03T16:31:13.849Z,0.95
2023-02-03T16:34:11.026Z,0.80
2023-02-03T16:39:51.355Z,1.15
2023-02-03T16:42:40.916Z,2.15
2023-02-03T16:45:37.463Z,2.90
2023-02-03T16:48:25.984Z,2.28
2023-02-03T16:50:59.457Z,7.10
2023-02-03T16:53:31.920Z,5.18
2023-02-03T16:56:05.489Z,1.83
2023-02-03T16:58:35.708Z,1.42
2023-02-03T17:01:08.112Z,1.17
2023-02-03T17:03:39.233Z,2.83
2023-02-03T17:06:14.928Z,1.02
2023-02-03T17:08:45.126Z,0.95
2023-02-03T17:11:20.711Z,2.25
2023-02-03T17:13:51.867Z,0.73
2023-02-03T17:16:24.762Z,1.40
2023-02-03T17:18:55.650Z,1.95
2023-02-03T17:21:27.938Z,1.67
2023-02-03T17:24:00.556Z,2.22
2023-02-03T17:26:30.771Z,1.30
2023-02-03T17:29:04.227Z,0.88
2023-02-03T17:31:34.337Z,1.33
2023-02-03T17:34:04.595Z,0.77
2023-02-03T17:36:34.776Z,2.60
2023-02-03T17:55:34.563Z,2.85
2023-02-03T17:58:05.110Z,3.53
2023-02-03T18:00:35.081Z,5.25
2023-02-03T18:03:05.089Z,1.73
2023-02-03T18:05:36.437Z,0.90
2023-02-03T18:08:16.259Z,3.58
2023-02-03T18:10:47.006Z,1.02
2023-02-03T18:13:17.036Z,2.75
2023-02-03T18:15:47.025Z,1.58
2023-02-03T18:18:17.233Z,2.25
2023-02-03T18:20:47.172Z,1.65
2023-02-03T18:23:17.172Z,1.77
2023-02-03T18:25:53.057Z,0.75
2023-02-03T18:28:24.699Z,1.58
2023-02-03T18:31:10.614Z,1.90
2023-02-03T18:33:41.857Z,1.83
2023-02-03T18:36:13.954Z,1.13
2023-02-03T18:38:46.058Z,3.22
2023-02-03T18:41:22.511Z,2.97
2023-02-03T18:43:52.699Z,2.47
2023-02-03T18:46:26.025Z,1.60
2023-02-03T18:48:57.348Z,3.13
2023-02-03T18:51:28.493Z,1.58
2023-02-03T18:54:00.259Z,3.17
2023-02-03T18:56:38.534Z,4.78
2023-02-03T18:59:11.518Z,0.95
2023-02-03T19:01:41.792Z,1.75
2023-02-03T19:04:12.888Z,1.65
2023-02-03T19:06:46.703Z,1.45
2023-02-03T19:09:19.042Z,1.17
2023-02-03T19:11:51.144Z,1.85
2023-02-03T19:14:21.618Z,3.08
2023-02-03T19:16:55.022Z,1.98
2023-02-03T19:19:25.112Z,1.02
2023-02-03T19:21:55.319Z,1.40
2023-02-03T19:24:27.819Z,1.58
2023-02-03T19:26:58.027Z,0.77
2023-02-03T19:29:28.076Z,0.88
2023-02-03T19:31:58.407Z,2.20
2023-02-03T19:34:28.636Z,2.97
2023-02-03T19:37:00.226Z,5.70
2023-02-03T19:39:32.760Z,2.15
2023-02-03T19:42:04.169Z,2.38
2023-02-03T19:44:34.295Z,3.97
2023-02-03T19:47:04.957Z,1.77
2023-02-03T19:49:35.460Z,2.42
2023-02-03T19:52:06.455Z,1.35
2023-02-03T19:54:37.451Z,2.47
2023-02-03T19:57:07.497Z,1.70
2023-02-03T19:59:37.746Z,1.15
2023-02-03T20:02:14.121Z,2.42
2023-02-03T20:04:45.300Z,9.43
2023-02-03T20:07:15.301Z,2.00
2023-02-03T20:09:45.501Z,4.43
2023-02-03T20:12:15.473Z,3.00
2023-02-03T20:14:45.328Z,6.40
2023-02-03T20:17:15.389Z,3.45
2023-02-03T20:19:45.444Z,6.45
2023-02-03T20:22:15.497Z,16.35
2023-02-03T20:24:45.513Z,16.15
2023-02-03T20:27:15.565Z,20.02
2023-02-03T20:29:47.199Z,13.40
2023-02-03T20:32:17.394Z,12.23
2023-02-03T20:34:47.592Z,12.18
2023-02-03T20:37:17.424Z,10.90
2023-02-03T20:39:47.434Z,10.68
2023-02-03T20:42:19.412Z,10.13
2023-02-03T20:44:49.476Z,6.65
2023-02-03T20:47:20.285Z,5.78
2023-02-03T20:49:50.807Z,8.00
2023-02-03T20:52:22.463Z,3.05
2023-02-03T20:54:52.476Z,3.78
2023-02-03T20:57:24.126Z,3.40
2023-02-03T20:59:54.140Z,1.83
2023-02-03T21:02:53.462Z,3.55
2023-02-03T21:05:29.297Z,2.83
2023-02-03T21:07:59.278Z,6.30
2023-02-03T21:10:29.919Z,7.32
2023-02-03T21:13:00.411Z,3.92
2023-02-03T21:15:31.888Z,3.25
2023-02-03T21:18:02.002Z,3.10
2023-02-03T21:20:33.349Z,3.33
2023-02-03T21:23:03.526Z,1.80
2023-02-03T21:25:36.634Z,2.08
2023-02-03T21:28:06.970Z,2.13
2023-02-03T21:30:37.933Z,1.52
2023-02-03T21:33:30.348Z,2.25
2023-02-03T21:36:00.430Z,2.10
2023-02-03T21:38:33.503Z,3.95
2023-02-03T21:41:03.608Z,3.13
2023-02-03T21:43:35.458Z,3.90
2023-02-03T21:46:06.494Z,2.50
2023-02-03T21:48:41.101Z,2.35
2023-02-03T21:51:23.645Z,2.53
2023-02-03T21:54:25.739Z,1.73
2023-02-03T21:56:55.894Z,1.52
2023-02-03T21:59:39.587Z,1.08
2023-02-03T22:02:47.335Z,1.27
2023-02-03T22:05:18.145Z,2.88
2023-02-03T22:07:48.122Z,2.97
2023-02-03T22:10:18.086Z,2.10
2023-02-03T22:12:48.226Z,2.72
2023-02-03T22:15:18.193Z,2.45
2023-02-03T22:17:50.880Z,1.50
2023-02-03T22:20:21.265Z,1.73
2023-02-03T22:22:51.427Z,1.88
2023-02-03T22:25:21.574Z,1.98
2023-02-03T22:27:53.004Z,2.65
2023-02-03T22:30:23.579Z,6.15
2023-02-03T22:32:53.585Z,2.45
2023-02-03T22:35:23.698Z,5.13
2023-02-03T22:37:55.016Z,1.85
2023-02-03T22:40:26.025Z,1.75
2023-02-03T22:42:56.013Z,2.17
2023-02-03T22:45:26.157Z,1.80
2023-02-03T22:47:58.339Z,4.43
2023-02-03T22:53:07.180Z,3.28
2023-02-03T22:55:40.961Z,3.88
2023-02-03T22:58:11.023Z,3.13
2023-02-03T23:00:43.176Z,6.00
2023-02-03T23:03:13.251Z,4.82
2023-02-03T23:05:43.732Z,4.90
2023-02-03T23:08:13.780Z,2.53
2023-02-03T23:10:43.591Z,7.30
2023-02-03T23:13:13.830Z,1.67
2023-02-03T23:15:43.867Z,3.80
2023-02-03T23:18:13.973Z,2.00
2023-02-03T23:20:44.110Z,2.85
2023-02-03T23:23:15.409Z,1.98
2023-02-03T23:25:45.572Z,1.98
2023-02-03T23:28:15.785Z,2.67
2023-02-03T23:30:45.915Z,2.13
2023-02-03T23:33:16.121Z,1.73
2023-02-03T23:35:50.176Z,4.25
2023-02-03T23:38:20.364Z,8.40
2023-02-03T23:40:50.538Z,1.77
2023-02-03T23:43:20.525Z,2.47
2023-02-03T23:45:50.396Z,1.80
2023-02-03T23:48:20.237Z,4.15
2023-02-03T23:50:50.305Z,7.93
2023-02-03T23:53:20.291Z,3.17
2023-02-03T23:55:50.323Z,5.88
2023-02-03T23:58:20.316Z,3.33
